sensor_id;sensor_type;location;lat;lon;timestamp;P1;durP1;ratioP1;P2;durP2;ratioP2
74487;SDS011;63019;51.080;13.642;2023-09-12T00:00:42;5.95;;;3.20;;
74487;SDS011;63019;51.080;13.642;2023-09-12T00:01:44;8.73;;;3.37;;
74487;SDS011;63019;51.080;13.642;2023-09-12T00:02:46;7.15;;;3.35;;
74487;SDS011;63019;51.080;13.642;2023-09-12T00:03:47;7.53;;;3.15;;
74487;SDS011;63019;51.080;13.642;2023-09-12T00:04:50;14.80;;;3.35;;
74487;SDS011;63019;51.080;13.642;2023-09-12T00:05:53;8.88;;;3.60;;
74487;SDS011;63019;51.080;13.642;2023-09-12T00:06:56;5.18;;;3.35;;
74487;SDS011;63019;51.080;13.642;2023-09-12T00:07:58;8.00;;;3.38;;
74487;SDS011;63019;51.080;13.642;2023-09-12T00:08:59;9.43;;;3.40;;
74487;SDS011;63019;51.080;13.642;2023-09-12T00:10:02;8.00;;;3.50;;
74487;SDS011;63019;51.080;13.642;2023-09-12T00:11:08;6.32;;;3.50;;
74487;SDS011;63019;51.080;13.642;2023-09-12T00:12:15;6.37;;;3.70;;
74487;SDS011;63019;51.080;13.642;2023-09-12T00:13:17;11.68;;;3.55;;
74487;SDS011;63019;51.080;13.642;2023-09-12T00:14:19;5.65;;;3.25;;
74487;SDS011;63019;51.080;13.642;2023-09-12T00:15:21;8.48;;;3.50;;
74487;SDS011;63019;51.080;13.642;2023-09-12T00:16:23;7.95;;;3.70;;
74487;SDS011;63019;51.080;13.642;2023-09-12T00:17:25;7.50;;;3.30;;
74487;SDS011;63019;51.080;13.642;2023-09-12T00:18:28;9.30;;;3.28;;
74487;SDS011;63019;51.080;13.642;2023-09-12T00:19:30;7.20;;;3.53;;
74487;SDS011;63019;51.080;13.642;2023-09-12T00:20:32;7.80;;;3.20;;
74487;SDS011;63019;51.080;13.642;2023-09-12T00:21:34;6.78;;;3.20;;
74487;SDS011;63019;51.080;13.642;2023-09-12T00:22:36;8.27;;;3.57;;
74487;SDS011;63019;51.080;13.642;2023-09-12T00:23:37;8.38;;;3.13;;
74487;SDS011;63019;51.080;13.642;2023-09-12T00:24:39;6.32;;;3.60;;
74487;SDS011;63019;51.080;13.642;2023-09-12T00:25:41;8.07;;;3.72;;
74487;SDS011;63019;51.080;13.642;2023-09-12T00:26:43;8.52;;;3.60;;
74487;SDS011;63019;51.080;13.642;2023-09-12T00:27:45;7.28;;;3.22;;
74487;SDS011;63019;51.080;13.642;2023-09-12T00:28:47;9.13;;;3.85;;
74487;SDS011;63019;51.080;13.642;2023-09-12T00:29:49;5.40;;;3.40;;
74487;SDS011;63019;51.080;13.642;2023-09-12T00:30:51;6.85;;;3.25;;
74487;SDS011;63019;51.080;13.642;2023-09-12T00:31:53;5.38;;;3.20;;
74487;SDS011;63019;51.080;13.642;2023-09-12T00:32:55;7.73;;;3.70;;
74487;SDS011;63019;51.080;13.642;2023-09-12T00:33:57;11.90;;;4.18;;
74487;SDS011;63019;51.080;13.642;2023-09-12T00:34:59;5.80;;;3.30;;
74487;SDS011;63019;51.080;13.642;2023-09-12T00:36:00;6.13;;;3.33;;
74487;SDS011;63019;51.080;13.642;2023-09-12T00:37:02;5.75;;;3.55;;
74487;SDS011;63019;51.080;13.642;2023-09-12T00:38:04;7.57;;;3.67;;
74487;SDS011;63019;51.080;13.642;2023-09-12T00:39:07;8.27;;;3.67;;
74487;SDS011;63019;51.080;13.642;2023-09-12T00:40:09;6.95;;;3.70;;
74487;SDS011;63019;51.080;13.642;2023-09-12T00:41:12;5.22;;;3.17;;
74487;SDS011;63019;51.080;13.642;2023-09-12T00:42:13;4.85;;;3.42;;
74487;SDS011;63019;51.080;13.642;2023-09-12T00:43:16;8.63;;;3.50;;
74487;SDS011;63019;51.080;13.642;2023-09-12T00:44:18;7.05;;;3.90;;
74487;SDS011;63019;51.080;13.642;2023-09-12T00:45:19;8.38;;;4.00;;
74487;SDS011;63019;51.080;13.642;2023-09-12T00:46:21;6.93;;;3.80;;
74487;SDS011;63019;51.080;13.642;2023-09-12T00:47:24;6.40;;;3.60;;
74487;SDS011;63019;51.080;13.642;2023-09-12T00:48:28;8.35;;;3.65;;
74487;SDS011;63019;51.080;13.642;2023-09-12T00:49:31;7.50;;;3.78;;
74487;SDS011;63019;51.080;13.642;2023-09-12T00:50:34;6.72;;;3.92;;
74487;SDS011;63019;51.080;13.642;2023-09-12T00:51:37;9.88;;;3.97;;
74487;SDS011;63019;51.080;13.642;2023-09-12T00:52:40;7.50;;;3.92;;
74487;SDS011;63019;51.080;13.642;2023-09-12T00:53:43;8.03;;;4.13;;
74487;SDS011;63019;51.080;13.642;2023-09-12T00:54:45;7.55;;;3.85;;
74487;SDS011;63019;51.080;13.642;2023-09-12T00:55:49;8.73;;;3.88;;
74487;SDS011;63019;51.080;13.642;2023-09-12T00:56:55;7.18;;;3.90;;
74487;SDS011;63019;51.080;13.642;2023-09-12T00:57:57;11.15;;;4.28;;
74487;SDS011;63019;51.080;13.642;2023-09-12T00:58:59;10.75;;;4.03;;
74487;SDS011;63019;51.080;13.642;2023-09-12T01:00:02;10.18;;;4.32;;
74487;SDS011;63019;51.080;13.642;2023-09-12T01:01:12;9.65;;;3.95;;
74487;SDS011;63019;51.080;13.642;2023-09-12T01:02:14;10.07;;;3.95;;
74487;SDS011;63019;51.080;13.642;2023-09-12T01:03:19;5.75;;;3.78;;
74487;SDS011;63019;51.080;13.642;2023-09-12T01:04:21;6.50;;;3.57;;
74487;SDS011;63019;51.080;13.642;2023-09-12T01:05:35;6.93;;;4.00;;
74487;SDS011;63019;51.080;13.642;2023-09-12T01:06:37;7.07;;;3.88;;
74487;SDS011;63019;51.080;13.642;2023-09-12T01:07:42;7.07;;;3.85;;
74487;SDS011;63019;51.080;13.642;2023-09-12T01:08:45;7.60;;;3.85;;
74487;SDS011;63019;51.080;13.642;2023-09-12T01:09:47;7.93;;;3.90;;
74487;SDS011;63019;51.080;13.642;2023-09-12T01:10:49;7.80;;;4.00;;
74487;SDS011;63019;51.080;13.642;2023-09-12T01:11:54;8.05;;;3.90;;
74487;SDS011;63019;51.080;13.642;2023-09-12T01:12:56;7.82;;;4.03;;
74487;SDS011;63019;51.080;13.642;2023-09-12T01:13:58;6.88;;;3.80;;
74487;SDS011;63019;51.080;13.642;2023-09-12T01:14:59;8.53;;;3.63;;
74487;SDS011;63019;51.080;13.642;2023-09-12T01:16:01;5.05;;;3.25;;
74487;SDS011;63019;51.080;13.642;2023-09-12T01:17:03;12.55;;;3.70;;
74487;SDS011;63019;51.080;13.642;2023-09-12T01:18:05;8.70;;;3.53;;
74487;SDS011;63019;51.080;13.642;2023-09-12T01:19:07;8.93;;;4.18;;
74487;SDS011;63019;51.080;13.642;2023-09-12T01:20:17;5.22;;;3.65;;
74487;SDS011;63019;51.080;13.642;2023-09-12T01:21:36;12.73;;;3.88;;
74487;SDS011;63019;51.080;13.642;2023-09-12T01:28:17;8.98;;;3.92;;
74487;SDS011;63019;51.080;13.642;2023-09-12T01:29:20;14.40;;;4.00;;
74487;SDS011;63019;51.080;13.642;2023-09-12T01:30:23;10.73;;;4.18;;
74487;SDS011;63019;51.080;13.642;2023-09-12T01:31:29;7.07;;;3.83;;
74487;SDS011;63019;51.080;13.642;2023-09-12T01:32:32;11.93;;;3.85;;
74487;SDS011;63019;51.080;13.642;2023-09-12T01:33:36;9.15;;;4.28;;
74487;SDS011;63019;51.080;13.642;2023-09-12T01:34:37;9.65;;;4.65;;
74487;SDS011;63019;51.080;13.642;2023-09-12T01:35:39;6.82;;;4.07;;
74487;SDS011;63019;51.080;13.642;2023-09-12T01:36:41;11.00;;;4.65;;
74487;SDS011;63019;51.080;13.642;2023-09-12T01:37:43;8.77;;;3.90;;
74487;SDS011;63019;51.080;13.642;2023-09-12T01:38:45;11.68;;;4.38;;
74487;SDS011;63019;51.080;13.642;2023-09-12T01:39:47;12.32;;;3.95;;
74487;SDS011;63019;51.080;13.642;2023-09-12T01:40:49;8.35;;;4.00;;
74487;SDS011;63019;51.080;13.642;2023-09-12T01:41:52;10.38;;;4.10;;
74487;SDS011;63019;51.080;13.642;2023-09-12T01:42:55;6.38;;;3.63;;
74487;SDS011;63019;51.080;13.642;2023-09-12T01:43:59;11.20;;;3.97;;
74487;SDS011;63019;51.080;13.642;2023-09-12T01:45:03;5.88;;;3.63;;
74487;SDS011;63019;51.080;13.642;2023-09-12T01:46:07;7.38;;;3.97;;
74487;SDS011;63019;51.080;13.642;2023-09-12T01:47:09;10.88;;;4.10;;
74487;SDS011;63019;51.080;13.642;2023-09-12T01:48:13;6.23;;;3.73;;
74487;SDS011;63019;51.080;13.642;2023-09-12T01:49:21;7.57;;;3.60;;
74487;SDS011;63019;51.080;13.642;2023-09-12T01:50:25;8.23;;;3.70;;
74487;SDS011;63019;51.080;13.642;2023-09-12T01:51:29;7.78;;;3.90;;
74487;SDS011;63019;51.080;13.642;2023-09-12T01:52:32;11.07;;;3.60;;
74487;SDS011;63019;51.080;13.642;2023-09-12T01:53:34;10.57;;;3.97;;
74487;SDS011;63019;51.080;13.642;2023-09-12T01:54:37;8.75;;;3.85;;
74487;SDS011;63019;51.080;13.642;2023-09-12T01:55:44;7.15;;;3.70;;
74487;SDS011;63019;51.080;13.642;2023-09-12T01:56:47;7.10;;;3.70;;
74487;SDS011;63019;51.080;13.642;2023-09-12T01:57:49;7.88;;;4.10;;
74487;SDS011;63019;51.080;13.642;2023-09-12T01:58:51;13.03;;;3.90;;
74487;SDS011;63019;51.080;13.642;2023-09-12T01:59:53;6.85;;;3.53;;
74487;SDS011;63019;51.080;13.642;2023-09-12T02:00:55;7.50;;;4.18;;
74487;SDS011;63019;51.080;13.642;2023-09-12T02:01:57;8.38;;;4.00;;
74487;SDS011;63019;51.080;13.642;2023-09-12T02:02:59;7.43;;;3.75;;
74487;SDS011;63019;51.080;13.642;2023-09-12T02:04:01;7.07;;;3.70;;
74487;SDS011;63019;51.080;13.642;2023-09-12T02:06:35;6.95;;;3.95;;
74487;SDS011;63019;51.080;13.642;2023-09-12T02:07:37;7.20;;;4.28;;
74487;SDS011;63019;51.080;13.642;2023-09-12T02:08:40;7.78;;;3.95;;
74487;SDS011;63019;51.080;13.642;2023-09-12T02:09:42;11.23;;;4.10;;
74487;SDS011;63019;51.080;13.642;2023-09-12T02:10:44;12.30;;;4.50;;
74487;SDS011;63019;51.080;13.642;2023-09-12T02:11:48;6.70;;;4.03;;
74487;SDS011;63019;51.080;13.642;2023-09-12T02:12:51;9.57;;;4.53;;
74487;SDS011;63019;51.080;13.642;2023-09-12T02:13:53;13.98;;;4.53;;
74487;SDS011;63019;51.080;13.642;2023-09-12T02:14:55;11.43;;;4.65;;
74487;SDS011;63019;51.080;13.642;2023-09-12T02:16:00;8.20;;;4.50;;
74487;SDS011;63019;51.080;13.642;2023-09-12T02:17:04;8.38;;;3.75;;
74487;SDS011;63019;51.080;13.642;2023-09-12T02:18:06;9.90;;;4.40;;
74487;SDS011;63019;51.080;13.642;2023-09-12T02:19:08;6.72;;;4.45;;
74487;SDS011;63019;51.080;13.642;2023-09-12T02:20:10;7.00;;;4.03;;
74487;SDS011;63019;51.080;13.642;2023-09-12T02:21:12;8.27;;;4.60;;
74487;SDS011;63019;51.080;13.642;2023-09-12T02:22:14;9.40;;;4.13;;
74487;SDS011;63019;51.080;13.642;2023-09-12T02:23:16;6.88;;;4.00;;
74487;SDS011;63019;51.080;13.642;2023-09-12T02:24:18;10.13;;;4.05;;
74487;SDS011;63019;51.080;13.642;2023-09-12T02:25:22;6.65;;;3.95;;
74487;SDS011;63019;51.080;13.642;2023-09-12T02:26:24;9.73;;;4.20;;
74487;SDS011;63019;51.080;13.642;2023-09-12T02:27:26;6.32;;;3.80;;
74487;SDS011;63019;51.080;13.642;2023-09-12T02:28:28;5.70;;;3.78;;
74487;SDS011;63019;51.080;13.642;2023-09-12T02:29:29;8.68;;;4.53;;
74487;SDS011;63019;51.080;13.642;2023-09-12T02:30:33;11.33;;;3.83;;
74487;SDS011;63019;51.080;13.642;2023-09-12T02:31:35;10.50;;;3.95;;
74487;SDS011;63019;51.080;13.642;2023-09-12T02:32:37;8.13;;;3.80;;
74487;SDS011;63019;51.080;13.642;2023-09-12T02:33:39;6.82;;;3.92;;
74487;SDS011;63019;51.080;13.642;2023-09-12T02:34:42;6.57;;;4.07;;
74487;SDS011;63019;51.080;13.642;2023-09-12T02:35:43;8.93;;;4.05;;
74487;SDS011;63019;51.080;13.642;2023-09-12T02:36:45;8.95;;;4.22;;
74487;SDS011;63019;51.080;13.642;2023-09-12T02:37:47;10.52;;;4.18;;
74487;SDS011;63019;51.080;13.642;2023-09-12T02:38:49;8.80;;;4.10;;
74487;SDS011;63019;51.080;13.642;2023-09-12T02:39:51;7.72;;;3.95;;
74487;SDS011;63019;51.080;13.642;2023-09-12T02:40:52;8.03;;;4.10;;
74487;SDS011;63019;51.080;13.642;2023-09-12T02:41:56;8.38;;;3.88;;
74487;SDS011;63019;51.080;13.642;2023-09-12T02:42:58;7.43;;;4.03;;
74487;SDS011;63019;51.080;13.642;2023-09-12T02:44:00;12.93;;;4.35;;
74487;SDS011;63019;51.080;13.642;2023-09-12T02:45:01;6.57;;;3.80;;
74487;SDS011;63019;51.080;13.642;2023-09-12T02:46:04;6.63;;;4.05;;
74487;SDS011;63019;51.080;13.642;2023-09-12T02:47:06;6.65;;;4.03;;
74487;SDS011;63019;51.080;13.642;2023-09-12T02:48:07;6.05;;;4.30;;
74487;SDS011;63019;51.080;13.642;2023-09-12T02:49:09;8.63;;;4.88;;
74487;SDS011;63019;51.080;13.642;2023-09-12T02:50:11;10.70;;;4.38;;
74487;SDS011;63019;51.080;13.642;2023-09-12T02:51:13;10.03;;;4.13;;
74487;SDS011;63019;51.080;13.642;2023-09-12T02:52:15;8.35;;;4.05;;
74487;SDS011;63019;51.080;13.642;2023-09-12T02:53:17;7.70;;;4.13;;
74487;SDS011;63019;51.080;13.642;2023-09-12T02:54:19;9.55;;;4.05;;
74487;SDS011;63019;51.080;13.642;2023-09-12T02:55:21;5.90;;;4.28;;
74487;SDS011;63019;51.080;13.642;2023-09-12T02:56:22;10.10;;;4.50;;
74487;SDS011;63019;51.080;13.642;2023-09-12T02:57:24;12.32;;;4.63;;
74487;SDS011;63019;51.080;13.642;2023-09-12T02:58:26;9.57;;;4.38;;
74487;SDS011;63019;51.080;13.642;2023-09-12T02:59:29;7.97;;;4.43;;
74487;SDS011;63019;51.080;13.642;2023-09-12T03:00:31;6.97;;;4.55;;
74487;SDS011;63019;51.080;13.642;2023-09-12T03:01:33;9.00;;;4.33;;
74487;SDS011;63019;51.080;13.642;2023-09-12T03:02:34;10.60;;;4.00;;
74487;SDS011;63019;51.080;13.642;2023-09-12T03:03:36;10.02;;;4.75;;
74487;SDS011;63019;51.080;13.642;2023-09-12T03:04:38;7.18;;;4.25;;
74487;SDS011;63019;51.080;13.642;2023-09-12T03:05:40;8.20;;;4.50;;
74487;SDS011;63019;51.080;13.642;2023-09-12T03:06:42;7.40;;;4.18;;
74487;SDS011;63019;51.080;13.642;2023-09-12T03:07:45;10.73;;;4.70;;
74487;SDS011;63019;51.080;13.642;2023-09-12T03:08:47;7.90;;;4.75;;
74487;SDS011;63019;51.080;13.642;2023-09-12T03:09:49;8.80;;;4.30;;
74487;SDS011;63019;51.080;13.642;2023-09-12T03:10:55;8.27;;;4.05;;
74487;SDS011;63019;51.080;13.642;2023-09-12T03:11:57;11.63;;;4.63;;
74487;SDS011;63019;51.080;13.642;2023-09-12T03:12:59;6.95;;;4.25;;
74487;SDS011;63019;51.080;13.642;2023-09-12T03:14:01;9.68;;;4.45;;
74487;SDS011;63019;51.080;13.642;2023-09-12T03:15:03;9.60;;;4.90;;
74487;SDS011;63019;51.080;13.642;2023-09-12T03:16:11;10.38;;;4.60;;
74487;SDS011;63019;51.080;13.642;2023-09-12T03:17:14;12.50;;;4.50;;
74487;SDS011;63019;51.080;13.642;2023-09-12T03:18:16;13.18;;;4.93;;
74487;SDS011;63019;51.080;13.642;2023-09-12T03:19:18;11.13;;;4.53;;
74487;SDS011;63019;51.080;13.642;2023-09-12T03:20:20;8.55;;;4.68;;
74487;SDS011;63019;51.080;13.642;2023-09-12T03:21:22;9.20;;;4.30;;
74487;SDS011;63019;51.080;13.642;2023-09-12T03:22:23;10.43;;;4.77;;
74487;SDS011;63019;51.080;13.642;2023-09-12T03:23:25;20.80;;;4.90;;
74487;SDS011;63019;51.080;13.642;2023-09-12T03:24:28;7.85;;;4.78;;
74487;SDS011;63019;51.080;13.642;2023-09-12T03:25:34;13.60;;;5.20;;
74487;SDS011;63019;51.080;13.642;2023-09-12T03:26:37;9.50;;;4.47;;
74487;SDS011;63019;51.080;13.642;2023-09-12T03:27:39;9.63;;;4.35;;
74487;SDS011;63019;51.080;13.642;2023-09-12T03:28:41;8.65;;;5.10;;
74487;SDS011;63019;51.080;13.642;2023-09-12T03:29:46;7.90;;;4.70;;
74487;SDS011;63019;51.080;13.642;2023-09-12T03:30:48;10.57;;;5.10;;
74487;SDS011;63019;51.080;13.642;2023-09-12T03:31:50;10.57;;;4.55;;
74487;SDS011;63019;51.080;13.642;2023-09-12T03:32:52;9.43;;;5.07;;
74487;SDS011;63019;51.080;13.642;2023-09-12T03:33:54;16.50;;;4.53;;
74487;SDS011;63019;51.080;13.642;2023-09-12T03:34:56;9.55;;;4.80;;
74487;SDS011;63019;51.080;13.642;2023-09-12T03:35:58;9.25;;;4.72;;
74487;SDS011;63019;51.080;13.642;2023-09-12T03:37:00;8.05;;;4.97;;
74487;SDS011;63019;51.080;13.642;2023-09-12T03:38:02;7.60;;;4.40;;
74487;SDS011;63019;51.080;13.642;2023-09-12T03:39:04;9.40;;;4.97;;
74487;SDS011;63019;51.080;13.642;2023-09-12T03:40:09;14.27;;;4.93;;
74487;SDS011;63019;51.080;13.642;2023-09-12T03:41:12;12.13;;;5.07;;
74487;SDS011;63019;51.080;13.642;2023-09-12T03:42:14;8.95;;;4.70;;
74487;SDS011;63019;51.080;13.642;2023-09-12T03:43:16;10.27;;;5.27;;
74487;SDS011;63019;51.080;13.642;2023-09-12T03:44:18;12.80;;;5.05;;
74487;SDS011;63019;51.080;13.642;2023-09-12T03:45:20;9.30;;;5.30;;
74487;SDS011;63019;51.080;13.642;2023-09-12T03:46:22;8.57;;;4.95;;
74487;SDS011;63019;51.080;13.642;2023-09-12T03:47:24;10.55;;;5.28;;
74487;SDS011;63019;51.080;13.642;2023-09-12T03:48:26;13.90;;;5.10;;
74487;SDS011;63019;51.080;13.642;2023-09-12T03:49:28;13.52;;;5.47;;
74487;SDS011;63019;51.080;13.642;2023-09-12T03:50:30;10.13;;;5.68;;
74487;SDS011;63019;51.080;13.642;2023-09-12T03:51:33;10.15;;;4.95;;
74487;SDS011;63019;51.080;13.642;2023-09-12T03:52:36;15.40;;;5.00;;
74487;SDS011;63019;51.080;13.642;2023-09-12T03:53:38;12.13;;;4.93;;
74487;SDS011;63019;51.080;13.642;2023-09-12T03:54:39;9.52;;;5.30;;
74487;SDS011;63019;51.080;13.642;2023-09-12T03:55:42;10.73;;;5.13;;
74487;SDS011;63019;51.080;13.642;2023-09-12T03:56:44;8.88;;;5.00;;
74487;SDS011;63019;51.080;13.642;2023-09-12T03:57:47;9.68;;;5.32;;
74487;SDS011;63019;51.080;13.642;2023-09-12T03:58:48;10.40;;;5.00;;
74487;SDS011;63019;51.080;13.642;2023-09-12T03:59:50;9.77;;;4.95;;
74487;SDS011;63019;51.080;13.642;2023-09-12T04:00:53;10.80;;;4.78;;
74487;SDS011;63019;51.080;13.642;2023-09-12T04:01:55;13.05;;;4.93;;
74487;SDS011;63019;51.080;13.642;2023-09-12T04:02:57;9.80;;;4.68;;
74487;SDS011;63019;51.080;13.642;2023-09-12T04:03:59;7.60;;;5.03;;
74487;SDS011;63019;51.080;13.642;2023-09-12T04:05:04;17.45;;;4.95;;
74487;SDS011;63019;51.080;13.642;2023-09-12T04:06:06;9.18;;;5.15;;
74487;SDS011;63019;51.080;13.642;2023-09-12T04:07:08;12.90;;;5.07;;
74487;SDS011;63019;51.080;13.642;2023-09-12T04:08:10;12.20;;;5.28;;
74487;SDS011;63019;51.080;13.642;2023-09-12T04:09:12;7.32;;;4.70;;
74487;SDS011;63019;51.080;13.642;2023-09-12T04:10:14;17.30;;;5.40;;
74487;SDS011;63019;51.080;13.642;2023-09-12T04:11:16;11.68;;;5.05;;
74487;SDS011;63019;51.080;13.642;2023-09-12T04:12:31;9.43;;;5.18;;
74487;SDS011;63019;51.080;13.642;2023-09-12T04:13:33;10.45;;;5.30;;
74487;SDS011;63019;51.080;13.642;2023-09-12T04:14:35;15.20;;;4.83;;
74487;SDS011;63019;51.080;13.642;2023-09-12T04:15:37;9.52;;;4.88;;
74487;SDS011;63019;51.080;13.642;2023-09-12T04:16:39;11.82;;;5.30;;
74487;SDS011;63019;51.080;13.642;2023-09-12T04:17:42;7.85;;;4.80;;
74487;SDS011;63019;51.080;13.642;2023-09-12T04:18:44;12.50;;;4.70;;
74487;SDS011;63019;51.080;13.642;2023-09-12T04:19:46;14.25;;;4.93;;
74487;SDS011;63019;51.080;13.642;2023-09-12T04:20:48;9.30;;;4.93;;
74487;SDS011;63019;51.080;13.642;2023-09-12T04:21:49;12.60;;;5.35;;
74487;SDS011;63019;51.080;13.642;2023-09-12T04:22:51;8.27;;;5.57;;
74487;SDS011;63019;51.080;13.642;2023-09-12T04:23:53;7.18;;;5.00;;
74487;SDS011;63019;51.080;13.642;2023-09-12T04:24:55;7.07;;;4.50;;
74487;SDS011;63019;51.080;13.642;2023-09-12T04:25:57;13.82;;;4.97;;
74487;SDS011;63019;51.080;13.642;2023-09-12T04:27:01;9.90;;;5.13;;
74487;SDS011;63019;51.080;13.642;2023-09-12T04:28:05;7.10;;;4.35;;
74487;SDS011;63019;51.080;13.642;2023-09-12T04:29:07;9.73;;;4.68;;
74487;SDS011;63019;51.080;13.642;2023-09-12T04:30:09;12.52;;;4.78;;
74487;SDS011;63019;51.080;13.642;2023-09-12T04:31:11;12.55;;;4.82;;
74487;SDS011;63019;51.080;13.642;2023-09-12T04:32:13;9.23;;;5.13;;
74487;SDS011;63019;51.080;13.642;2023-09-12T04:33:15;7.55;;;4.95;;
74487;SDS011;63019;51.080;13.642;2023-09-12T04:34:17;12.63;;;5.32;;
74487;SDS011;63019;51.080;13.642;2023-09-12T04:35:18;8.83;;;4.83;;
74487;SDS011;63019;51.080;13.642;2023-09-12T04:36:22;7.65;;;4.75;;
74487;SDS011;63019;51.080;13.642;2023-09-12T04:37:24;8.60;;;4.82;;
74487;SDS011;63019;51.080;13.642;2023-09-12T04:38:26;18.50;;;4.78;;
74487;SDS011;63019;51.080;13.642;2023-09-12T04:39:28;10.70;;;5.13;;
74487;SDS011;63019;51.080;13.642;2023-09-12T04:40:31;9.38;;;5.00;;
74487;SDS011;63019;51.080;13.642;2023-09-12T04:41:33;10.60;;;5.32;;
74487;SDS011;63019;51.080;13.642;2023-09-12T04:42:35;13.32;;;5.30;;
74487;SDS011;63019;51.080;13.642;2023-09-12T04:43:37;10.80;;;4.85;;
74487;SDS011;63019;51.080;13.642;2023-09-12T04:44:39;9.77;;;5.20;;
74487;SDS011;63019;51.080;13.642;2023-09-12T04:45:41;9.83;;;5.33;;
74487;SDS011;63019;51.080;13.642;2023-09-12T04:46:43;9.13;;;4.90;;
74487;SDS011;63019;51.080;13.642;2023-09-12T04:47:45;14.93;;;4.90;;
74487;SDS011;63019;51.080;13.642;2023-09-12T04:48:47;16.90;;;5.00;;
74487;SDS011;63019;51.080;13.642;2023-09-12T04:49:49;9.48;;;5.05;;
74487;SDS011;63019;51.080;13.642;2023-09-12T04:50:51;10.90;;;5.22;;
74487;SDS011;63019;51.080;13.642;2023-09-12T04:51:53;12.32;;;5.15;;
74487;SDS011;63019;51.080;13.642;2023-09-12T04:52:55;8.05;;;4.72;;
74487;SDS011;63019;51.080;13.642;2023-09-12T04:53:56;9.35;;;5.43;;
74487;SDS011;63019;51.080;13.642;2023-09-12T04:54:58;10.68;;;5.25;;
74487;SDS011;63019;51.080;13.642;2023-09-12T04:56:01;10.17;;;5.13;;
74487;SDS011;63019;51.080;13.642;2023-09-12T04:57:03;8.40;;;4.85;;
74487;SDS011;63019;51.080;13.642;2023-09-12T04:58:05;12.25;;;5.05;;
74487;SDS011;63019;51.080;13.642;2023-09-12T04:59:07;9.40;;;4.97;;
74487;SDS011;63019;51.080;13.642;2023-09-12T05:00:09;10.95;;;5.07;;
74487;SDS011;63019;51.080;13.642;2023-09-12T05:01:12;10.93;;;4.80;;
74487;SDS011;63019;51.080;13.642;2023-09-12T05:02:14;11.65;;;4.82;;
74487;SDS011;63019;51.080;13.642;2023-09-12T05:03:16;7.68;;;4.80;;
74487;SDS011;63019;51.080;13.642;2023-09-12T05:04:18;9.63;;;4.95;;
74487;SDS011;63019;51.080;13.642;2023-09-12T05:05:21;10.00;;;4.90;;
74487;SDS011;63019;51.080;13.642;2023-09-12T05:06:23;7.73;;;5.00;;
74487;SDS011;63019;51.080;13.642;2023-09-12T05:07:25;8.55;;;5.05;;
74487;SDS011;63019;51.080;13.642;2023-09-12T05:08:27;12.00;;;5.30;;
74487;SDS011;63019;51.080;13.642;2023-09-12T05:09:30;10.05;;;5.45;;
74487;SDS011;63019;51.080;13.642;2023-09-12T05:10:32;9.35;;;5.00;;
74487;SDS011;63019;51.080;13.642;2023-09-12T05:11:34;13.18;;;5.10;;
74487;SDS011;63019;51.080;13.642;2023-09-12T05:12:36;12.23;;;4.95;;
74487;SDS011;63019;51.080;13.642;2023-09-12T05:13:38;10.27;;;5.32;;
74487;SDS011;63019;51.080;13.642;2023-09-12T05:14:40;14.43;;;5.15;;
74487;SDS011;63019;51.080;13.642;2023-09-12T05:15:42;10.73;;;5.20;;
74487;SDS011;63019;51.080;13.642;2023-09-12T05:16:44;7.83;;;4.63;;
74487;SDS011;63019;51.080;13.642;2023-09-12T05:17:46;8.77;;;4.63;;
74487;SDS011;63019;51.080;13.642;2023-09-12T05:18:47;9.60;;;4.72;;
74487;SDS011;63019;51.080;13.642;2023-09-12T05:19:50;6.80;;;5.07;;
74487;SDS011;63019;51.080;13.642;2023-09-12T05:20:52;6.88;;;4.50;;
74487;SDS011;63019;51.080;13.642;2023-09-12T05:21:55;10.90;;;4.95;;
74487;SDS011;63019;51.080;13.642;2023-09-12T05:22:57;8.55;;;4.90;;
74487;SDS011;63019;51.080;13.642;2023-09-12T05:23:59;13.18;;;5.80;;
74487;SDS011;63019;51.080;13.642;2023-09-12T05:25:00;8.85;;;4.97;;
74487;SDS011;63019;51.080;13.642;2023-09-12T05:26:02;11.52;;;5.30;;
74487;SDS011;63019;51.080;13.642;2023-09-12T05:27:04;15.23;;;5.07;;
74487;SDS011;63019;51.080;13.642;2023-09-12T05:28:07;12.27;;;5.25;;
74487;SDS011;63019;51.080;13.642;2023-09-12T05:29:09;17.23;;;5.45;;
74487;SDS011;63019;51.080;13.642;2023-09-12T05:30:11;13.57;;;5.60;;
74487;SDS011;63019;51.080;13.642;2023-09-12T05:31:13;14.07;;;5.65;;
74487;SDS011;63019;51.080;13.642;2023-09-12T05:32:15;9.60;;;5.05;;
74487;SDS011;63019;51.080;13.642;2023-09-12T05:33:18;13.38;;;5.22;;
74487;SDS011;63019;51.080;13.642;2023-09-12T05:34:20;16.73;;;5.68;;
74487;SDS011;63019;51.080;13.642;2023-09-12T05:35:22;15.98;;;5.90;;
74487;SDS011;63019;51.080;13.642;2023-09-12T05:36:23;15.85;;;5.05;;
74487;SDS011;63019;51.080;13.642;2023-09-12T05:37:26;12.67;;;5.40;;
74487;SDS011;63019;51.080;13.642;2023-09-12T05:38:27;15.13;;;5.80;;
74487;SDS011;63019;51.080;13.642;2023-09-12T05:39:29;12.57;;;5.18;;
74487;SDS011;63019;51.080;13.642;2023-09-12T05:40:31;14.88;;;5.80;;
74487;SDS011;63019;51.080;13.642;2023-09-12T05:41:33;14.88;;;6.10;;
74487;SDS011;63019;51.080;13.642;2023-09-12T05:42:35;16.40;;;5.63;;
74487;SDS011;63019;51.080;13.642;2023-09-12T05:43:37;13.77;;;6.22;;
74487;SDS011;63019;51.080;13.642;2023-09-12T05:44:39;15.95;;;5.72;;
74487;SDS011;63019;51.080;13.642;2023-09-12T05:45:41;12.95;;;5.75;;
74487;SDS011;63019;51.080;13.642;2023-09-12T05:46:46;10.18;;;5.47;;
74487;SDS011;63019;51.080;13.642;2023-09-12T05:47:49;13.17;;;5.40;;
74487;SDS011;63019;51.080;13.642;2023-09-12T05:48:51;10.45;;;5.65;;
74487;SDS011;63019;51.080;13.642;2023-09-12T05:49:54;11.45;;;5.35;;
74487;SDS011;63019;51.080;13.642;2023-09-12T05:50:57;13.57;;;5.53;;
74487;SDS011;63019;51.080;13.642;2023-09-12T05:51:58;8.23;;;4.90;;
74487;SDS011;63019;51.080;13.642;2023-09-12T05:53:00;12.40;;;5.25;;
74487;SDS011;63019;51.080;13.642;2023-09-12T05:54:02;23.40;;;5.65;;
74487;SDS011;63019;51.080;13.642;2023-09-12T05:55:04;15.05;;;5.50;;
74487;SDS011;63019;51.080;13.642;2023-09-12T05:56:06;12.20;;;5.63;;
74487;SDS011;63019;51.080;13.642;2023-09-12T05:57:09;11.82;;;5.38;;
74487;SDS011;63019;51.080;13.642;2023-09-12T05:58:12;10.77;;;5.83;;
74487;SDS011;63019;51.080;13.642;2023-09-12T05:59:14;11.57;;;5.60;;
74487;SDS011;63019;51.080;13.642;2023-09-12T06:00:15;13.45;;;5.63;;
74487;SDS011;63019;51.080;13.642;2023-09-12T06:01:18;13.50;;;5.70;;
74487;SDS011;63019;51.080;13.642;2023-09-12T06:02:19;14.90;;;5.55;;
74487;SDS011;63019;51.080;13.642;2023-09-12T06:03:21;10.82;;;5.88;;
74487;SDS011;63019;51.080;13.642;2023-09-12T06:04:23;13.38;;;5.55;;
74487;SDS011;63019;51.080;13.642;2023-09-12T06:05:25;16.67;;;5.15;;
74487;SDS011;63019;51.080;13.642;2023-09-12T06:06:28;17.27;;;5.53;;
74487;SDS011;63019;51.080;13.642;2023-09-12T06:07:29;11.23;;;5.78;;
74487;SDS011;63019;51.080;13.642;2023-09-12T06:08:33;8.10;;;5.27;;
74487;SDS011;63019;51.080;13.642;2023-09-12T06:09:35;11.52;;;5.82;;
74487;SDS011;63019;51.080;13.642;2023-09-12T06:10:37;11.93;;;5.85;;
74487;SDS011;63019;51.080;13.642;2023-09-12T06:11:39;13.45;;;5.35;;
74487;SDS011;63019;51.080;13.642;2023-09-12T06:12:41;8.32;;;4.97;;
74487;SDS011;63019;51.080;13.642;2023-09-12T06:13:43;12.05;;;5.55;;
74487;SDS011;63019;51.080;13.642;2023-09-12T06:14:45;10.30;;;5.47;;
74487;SDS011;63019;51.080;13.642;2023-09-12T06:15:47;13.60;;;5.40;;